Terminal Aerodrome Forecast
Issued by NWS

Current Version | Previous Version | Text Only | Print | Product List | Glossary On
Versions: 1 2 3 4 5 6 7 8 9 10 11 12
000
FTUS44 KTSA 031700
TAFRVS
TAF
KRVS 031720Z 0318/0418 18017G22KT P6SM SKC
     FM040100 17008KT P6SM FEW250
     FM041400 19011G20KT P6SM BKN250=

USA.gov is the U.S. government's official web portal to all federal, state and local government web resources and services.